Skip to main content.
 TIME   TEMPERATURE   WINDSPEED   DIRECTION   HUMIDITY   BAROMETER   RAINFALL 
17:11 32.0°C (89.6°F) 14.8 kmh (9.2 mph) ENE 49% 1015.9hPa (30.00 inHg) 0.0mm (0.00 in.)
16:11 31.0°C (87.8 °F) 13.0 kmh (8.1 mph) E 55% 1015.9hPa (30.00 inHg) 0.0mm (0.00 in.)
15:11 33.0°C (91.4 °F) 11.1 kmh (6.9 mph) W 36% 1016.9hPa (30.03 inHg) 0.0mm (0.00 in.)
14:11 33.0°C (91.4 °F) 13.0 kmh (8.1 mph) NNW 36% 1016.9hPa (30.03 inHg) 0.0mm (0.00 in.)
13:11 32.0°C (89.6 °F) 16.7 kmh (10.4 mph) NNW 40% 1016.9hPa (30.03 inHg) 0.0mm (0.00 in.)
12:11 32.0°C (89.6 °F) 14.8 kmh (9.2 mph) NW 43% 1016.9hPa (30.03 inHg) 0.0mm (0.00 in.)
11:11 31.0°C (87.8 °F) 16.7 kmh (10.4 mph) NNW 43% 1016.9hPa (30.03 inHg) 0.0mm (0.00 in.)
10:11 30.0°C (86.0 °F) 13.0 kmh (8.1 mph) NW 48% 1016.9hPa (30.03 inHg) 0.0mm (0.00 in.)
9:11 28.0°C (82.4 °F) 11.1 kmh (6.9 mph) NNW 65% 1016.9hPa (30.03 inHg) 0.0mm (0.00 in.)
8:11 26.0°C (78.8 °F) 5.6 kmh (3.5 mph) NW 78% 1015.9hPa (30.00 inHg) 0.0mm (0.00 in.)
7:11 23.0°C (73.4 °F) 7.4 kmh (4.6 mph) WNW 88% 1015.9hPa (30.00 inHg) 0.0mm (0.00 in.)
6:11 23.0°C (73.4 °F) 3.7 kmh (2.3 mph) WNW 83% 1015.9hPa (30.00 inHg) 0.0mm (0.00 in.)
5:11 24.0°C (75.2 °F) 9.3 kmh (5.8 mph) W 83% 1015.9hPa (30.00 inHg) 0.0mm (0.00 in.)
4:11 24.0°C (75.2 °F) 7.4 kmh (4.6 mph) W 73% 1015.9hPa (30.00 inHg) 0.0mm (0.00 in.)
3:11 24.0°C (75.2 °F) 7.4 kmh (4.6 mph) W 83% 1015.9hPa (30.00 inHg) 0.0mm (0.00 in.)
2:11 24.0°C (75.2 °F) 5.6 kmh (3.5 mph) W 78% 1015.9hPa (30.00 inHg) 0.0mm (0.00 in.)
1:11 24.0°C (75.2 °F) 9.3 kmh (5.8 mph) WNW 78% 1015.9hPa (30.00 inHg) 0.0mm (0.00 in.)
0:11 25.0°C (77.0 °F) 9.3 kmh (5.8 mph) W 73% 1016.9hPa (30.03 inHg) 0.0mm (0.00 in.)
23:11 26.0°C (78.8 °F) 5.6 kmh (3.5 mph) WNW 69% 1016.9hPa (30.03 inHg) 0.0mm (0.00 in.)
22:11 26.0°C (78.8 °F) 5.6 kmh (3.5 mph) WSW 65% 1016.9hPa (30.03 inHg) 0.0mm (0.00 in.)
21:11 27.0°C (80.6 °F) 5.6 kmh (3.5 mph) WSW 57% 1015.9hPa (30.00 inHg) 0.0mm (0.00 in.)
20:11 29.0°C (84.2 °F) 9.3 kmh (5.8 mph) W 48% 1015.9hPa (30.00 inHg) 0.0mm (0.00 in.)
19:11 31.0°C (87.8 °F) 7.4 kmh (4.6 mph) W 43% 1015.9hPa (30.00 inHg) 0.0mm (0.00 in.)
18:11 31.0°C (87.8 °F) 11.1 kmh (6.9 mph) NNE 45% 1015.9hPa (30.00 inHg) 0.0mm (0.00 in.)